Time;durP1;ratioP1;P1;durP2;ratioP2;P2;SDS_P1;SDS_P2;PMS_P1;PMS_P2;Temp;Humidity;BMP_temperature;BMP_pressure;BME280_temperature;BME280_humidity;BME280_pressure;Samples;Min_cycle;Max_cycle;Signal;HPM_P1;HPM_P2
2021/04/18 00:01:46;;;;;;;13.37;9.20;;;4.30;98.60;;;;;;5038849;28;20432;-62
2021/04/18 00:04:14;;;;;;;16.20;9.80;;;4.30;98.80;;;;;;5043433;28;20213;-61
2021/04/18 00:06:40;;;;;;;15.23;8.93;;;4.30;99.00;;;;;;5039270;28;20426;-61
2021/04/18 00:09:08;;;;;;;25.43;12.00;;;4.30;99.10;;;;;;5037207;28;20425;-61
2021/04/18 00:11:34;;;;;;;28.00;14.53;;;4.30;99.10;;;;;;5042407;28;20437;-60
2021/04/18 00:13:59;;;;;;;29.43;14.73;;;4.30;99.10;;;;;;5042552;28;20458;-61
2021/04/18 00:16:25;;;;;;;26.47;12.77;;;4.30;99.10;;;;;;5043064;28;20183;-61
2021/04/18 00:18:52;;;;;;;16.50;10.07;;;4.20;99.10;;;;;;5044109;28;21152;-62
2021/04/18 00:21:20;;;;;;;12.90;10.10;;;4.20;99.10;;;;;;5042229;28;20437;-61
2021/04/18 00:23:45;;;;;;;20.20;10.73;;;4.20;99.00;;;;;;5041126;28;20469;-61
2021/04/18 00:26:11;;;;;;;15.70;9.53;;;4.20;98.90;;;;;;5044438;28;20894;-61
2021/04/18 00:28:37;;;;;;;13.60;8.73;;;4.20;98.80;;;;;;5044473;28;20179;-61
2021/04/18 00:31:02;;;;;;;9.50;8.40;;;4.20;98.60;;;;;;5042565;28;20178;-61
2021/04/18 00:33:28;;;;;;;15.00;8.70;;;4.20;98.60;;;;;;5034899;28;20211;-61
2021/04/18 00:35:54;;;;;;;18.63;8.50;;;4.20;98.60;;;;;;5044680;28;20216;-62
2021/04/18 00:38:20;;;;;;;12.60;8.97;;;4.20;98.70;;;;;;5047487;28;20536;-60
2021/04/18 00:40:46;;;;;;;11.17;8.83;;;4.20;98.80;;;;;;5039715;28;20176;-60
2021/04/18 00:43:12;;;;;;;11.53;7.97;;;4.20;98.80;;;;;;5041268;28;20458;-60
2021/04/18 00:45:38;;;;;;;12.17;8.10;;;4.20;98.80;;;;;;5042789;28;20179;-61
2021/04/18 00:48:04;;;;;;;13.77;8.43;;;4.10;98.60;;;;;;5041642;28;20790;-60
2021/04/18 00:50:33;;;;;;;13.30;8.80;;;4.20;98.60;;;;;;5045011;28;20874;-60
2021/04/18 00:53:03;;;;;;;18.67;9.37;;;4.10;98.60;;;;;;5040499;28;20508;-61
2021/04/18 00:55:30;;;;;;;10.53;8.10;;;4.10;98.60;;;;;;5047807;28;20875;-61
2021/04/18 00:57:56;;;;;;;12.93;8.63;;;4.10;98.90;;;;;;5042497;28;20437;-60
2021/04/18 01:00:25;;;;;;;13.93;8.83;;;4.10;99.00;;;;;;5046161;28;20451;-61
2021/04/18 01:02:51;;;;;;;17.30;8.63;;;4.10;98.90;;;;;;5035959;28;20453;-61
2021/04/18 01:05:18;;;;;;;13.70;8.23;;;4.10;99.00;;;;;;5045135;28;21042;-60
2021/04/18 01:07:44;;;;;;;14.93;9.27;;;4.10;99.10;;;;;;5042505;28;20516;-60
2021/04/18 01:10:11;;;;;;;11.20;7.80;;;4.10;99.00;;;;;;5044613;28;20520;-61
2021/04/18 01:12:37;;;;;;;12.40;8.50;;;4.10;98.90;;;;;;5038469;28;20434;-60
2021/04/18 01:15:04;;;;;;;11.00;8.27;;;4.10;98.90;;;;;;5039319;28;20449;-60
2021/04/18 01:17:30;;;;;;;12.07;9.00;;;4.10;98.80;;;;;;5041101;28;20261;-60
2021/04/18 01:19:56;;;;;;;12.43;8.27;;;4.10;98.80;;;;;;5047351;28;20472;-61
2021/04/18 01:22:21;;;;;;;16.10;10.03;;;4.00;98.90;;;;;;5047866;28;20195;-59
2021/04/18 01:24:47;;;;;;;13.13;8.33;;;4.00;99.00;;;;;;5050594;28;20199;-60
2021/04/18 01:27:15;;;;;;;14.83;9.10;;;4.00;99.00;;;;;;5045313;28;20175;-60
2021/04/18 01:29:41;;;;;;;10.57;8.20;;;4.00;99.10;;;;;;5043183;28;20210;-60
2021/04/18 01:32:07;;;;;;;16.10;9.43;;;4.10;99.20;;;;;;5043386;28;20468;-61
2021/04/18 01:34:38;;;;;;;11.50;8.20;;;4.00;99.10;;;;;;5062374;28;20480;-61
2021/04/18 01:37:04;;;;;;;14.27;9.20;;;4.00;99.10;;;;;;5055724;28;20478;-60
2021/04/18 01:39:30;;;;;;;10.50;7.70;;;4.00;99.20;;;;;;5059567;28;20438;-61
2021/04/18 01:41:56;;;;;;;12.67;8.63;;;4.00;99.00;;;;;;5056051;28;20703;-62
2021/04/18 01:44:21;;;;;;;12.70;8.27;;;4.00;99.10;;;;;;5058863;28;20206;-61
2021/04/18 01:46:47;;;;;;;14.90;8.80;;;4.00;99.20;;;;;;5061078;28;20202;-61
2021/04/18 01:49:13;;;;;;;17.90;8.30;;;4.00;99.30;;;;;;5041210;28;20187;-61
2021/04/18 01:51:39;;;;;;;18.43;8.70;;;4.00;99.50;;;;;;5043670;28;20305;-60
2021/04/18 01:54:06;;;;;;;12.77;8.60;;;4.00;99.40;;;;;;5043003;28;21102;-61
2021/04/18 01:56:36;;;;;;;13.53;9.23;;;4.00;99.40;;;;;;5047488;28;20206;-61
2021/04/18 01:59:04;;;;;;;14.43;9.97;;;4.00;99.40;;;;;;5041232;28;20425;-60
2021/04/18 02:01:30;;;;;;;17.53;9.87;;;4.00;99.60;;;;;;5043385;28;20462;-59
2021/04/18 02:03:59;;;;;;;12.23;8.80;;;4.00;99.90;;;;;;5039558;28;20564;-61
2021/04/18 02:06:24;;;;;;;13.83;9.90;;;4.00;99.60;;;;;;5039959;28;20206;-62
2021/04/18 02:08:50;;;;;;;13.00;10.07;;;4.00;99.70;;;;;;5057366;28;20417;-61
2021/04/18 02:11:16;;;;;;;11.17;8.97;;;4.00;99.80;;;;;;5041871;28;20171;-59
2021/04/18 02:13:41;;;;;;;11.80;9.10;;;4.00;99.80;;;;;;5040475;28;20200;-60
2021/04/18 02:16:08;;;;;;;14.00;10.00;;;4.00;99.90;;;;;;5037263;28;20180;-61
2021/04/18 02:18:34;;;;;;;13.67;9.33;;;4.00;99.90;;;;;;5040623;28;20219;-60
2021/04/18 02:20:59;;;;;;;16.77;10.20;;;4.00;99.90;;;;;;5041761;28;20457;-60
2021/04/18 02:23:25;;;;;;;17.63;10.03;;;4.00;99.90;;;;;;5039797;28;20211;-60
2021/04/18 02:25:52;;;;;;;15.40;9.33;;;4.00;99.90;;;;;;5043710;28;20202;-59
2021/04/18 02:28:17;;;;;;;12.10;9.00;;;4.00;99.90;;;;;;5040243;28;20187;-60
2021/04/18 02:30:43;;;;;;;13.87;9.73;;;4.00;99.90;;;;;;5038759;28;20428;-61
2021/04/18 02:33:09;;;;;;;16.13;9.80;;;4.00;99.90;;;;;;5038781;28;20720;-60
2021/04/18 02:35:34;;;;;;;12.63;9.83;;;4.00;99.70;;;;;;5038909;28;20438;-59
2021/04/18 02:38:00;;;;;;;16.43;10.40;;;4.00;99.80;;;;;;5041568;28;20191;-60
2021/04/18 02:40:26;;;;;;;13.73;9.17;;;4.00;99.80;;;;;;5039846;28;20230;-60
2021/04/18 02:42:52;;;;;;;14.17;9.30;;;4.00;99.90;;;;;;5037808;28;20671;-60
2021/04/18 02:45:17;;;;;;;13.03;9.47;;;4.00;99.90;;;;;;5038732;28;20178;-61
2021/04/18 02:47:43;;;;;;;16.90;9.93;;;4.00;99.90;;;;;;5040657;28;20985;-60
2021/04/18 02:50:09;;;;;;;12.97;9.57;;;4.00;99.90;;;;;;5039405;28;20406;-60
2021/04/18 02:52:35;;;;;;;16.10;9.60;;;4.00;99.90;;;;;;5040449;28;20714;-60
2021/04/18 02:55:02;;;;;;;16.53;11.20;;;4.00;99.90;;;;;;5037930;28;20457;-59
2021/04/18 02:57:27;;;;;;;13.53;9.10;;;4.00;99.90;;;;;;5037464;28;20179;-60
2021/04/18 02:59:53;;;;;;;14.87;9.97;;;4.00;99.90;;;;;;5038821;28;20453;-60
2021/04/18 03:02:19;;;;;;;17.17;9.90;;;4.00;99.90;;;;;;5040644;28;20203;-60
2021/04/18 03:04:45;;;;;;;15.40;10.27;;;4.00;99.90;;;;;;5036266;28;20351;-60
2021/04/18 03:07:11;;;;;;;13.13;9.30;;;4.00;99.90;;;;;;5036540;28;20326;-60
2021/04/18 03:09:36;;;;;;;14.07;8.83;;;4.00;99.90;;;;;;5042632;28;20428;-61
2021/04/18 03:12:03;;;;;;;12.43;9.67;;;4.00;99.80;;;;;;5040390;28;20184;-61
2021/04/18 03:14:28;;;;;;;13.90;9.50;;;4.00;99.90;;;;;;5037994;28;20207;-61
2021/04/18 03:16:54;;;;;;;12.30;8.07;;;4.00;99.90;;;;;;5039043;28;20461;-60
2021/04/18 03:19:19;;;;;;;16.60;9.97;;;3.90;99.90;;;;;;5038126;28;20198;-61
2021/04/18 03:21:45;;;;;;;15.23;10.40;;;3.90;99.90;;;;;;5039389;28;20175;-60
2021/04/18 03:24:11;;;;;;;14.77;10.00;;;3.90;99.90;;;;;;5040352;28;20677;-60
2021/04/18 03:26:36;;;;;;;13.17;9.50;;;3.90;99.90;;;;;;5039026;28;20177;-60
2021/04/18 03:29:02;;;;;;;15.43;10.77;;;3.90;99.90;;;;;;5041258;28;20172;-62
2021/04/18 03:31:28;;;;;;;14.30;9.40;;;3.90;99.90;;;;;;5041232;28;20178;-61
2021/04/18 03:33:54;;;;;;;13.37;9.47;;;4.00;99.90;;;;;;5039930;28;20242;-61
2021/04/18 03:36:19;;;;;;;14.00;9.03;;;3.90;99.90;;;;;;5036250;28;20461;-61
2021/04/18 03:38:45;;;;;;;13.60;9.40;;;4.00;99.90;;;;;;5038849;28;20266;-61
2021/04/18 03:41:11;;;;;;;16.00;9.70;;;4.00;99.90;;;;;;5037412;28;20652;-60
2021/04/18 03:43:36;;;;;;;11.60;9.37;;;4.00;99.90;;;;;;5038819;28;20655;-60
2021/04/18 03:46:02;;;;;;;14.03;9.57;;;4.00;99.90;;;;;;5033356;28;21022;-61
2021/04/18 03:48:28;;;;;;;14.30;9.37;;;4.00;99.90;;;;;;5037918;28;20171;-61
2021/04/18 03:50:54;;;;;;;13.17;9.77;;;4.00;99.90;;;;;;5038987;28;20432;-62
2021/04/18 03:53:19;;;;;;;13.13;9.40;;;4.00;99.90;;;;;;5042133;28;20230;-61
2021/04/18 03:55:45;;;;;;;14.53;10.43;;;3.90;99.90;;;;;;5039959;28;20179;-61
2021/04/18 03:58:11;;;;;;;16.73;9.60;;;3.90;99.90;;;;;;5036960;28;20182;-61
2021/04/18 04:00:36;;;;;;;16.60;9.60;;;3.90;99.90;;;;;;5037771;28;20180;-61
2021/04/18 04:03:02;;;;;;;13.03;8.77;;;3.90;99.90;;;;;;5039358;28;20680;-62
2021/04/18 04:05:28;;;;;;;14.93;9.90;;;3.90;99.90;;;;;;5037431;28;20195;-61
2021/04/18 04:07:53;;;;;;;14.50;9.30;;;3.90;99.90;;;;;;5039124;28;20667;-61
2021/04/18 04:10:19;;;;;;;18.27;10.00;;;3.90;99.90;;;;;;5043594;28;20167;-62
2021/04/18 04:12:45;;;;;;;13.40;9.10;;;3.90;99.90;;;;;;5039664;28;20718;-62
2021/04/18 04:15:11;;;;;;;12.93;8.97;;;3.90;99.90;;;;;;5037129;28;20199;-61
2021/04/18 04:17:37;;;;;;;14.23;9.03;;;3.80;99.90;;;;;;5039269;28;20221;-61
2021/04/18 04:20:03;;;;;;;15.10;9.50;;;3.80;99.90;;;;;;5037980;28;20551;-61
2021/04/18 04:22:29;;;;;;;15.40;9.80;;;3.80;99.90;;;;;;5041473;28;20192;-60
2021/04/18 04:24:55;;;;;;;19.13;8.70;;;3.80;99.90;;;;;;5040917;28;20948;-59
2021/04/18 04:27:21;;;;;;;15.60;9.20;;;3.80;99.90;;;;;;5039546;28;20176;-61
2021/04/18 04:29:50;;;;;;;15.73;9.50;;;3.80;99.90;;;;;;5039561;28;20230;-61
2021/04/18 04:32:16;;;;;;;16.90;8.97;;;3.80;99.90;;;;;;5037367;28;20509;-61
2021/04/18 04:34:42;;;;;;;13.33;9.63;;;3.80;99.90;;;;;;5037506;28;20725;-60
2021/04/18 04:37:10;;;;;;;12.67;9.70;;;3.80;99.90;;;;;;5039074;28;20428;-60
2021/04/18 04:39:35;;;;;;;15.53;10.23;;;3.80;99.70;;;;;;5040561;28;20242;-59
2021/04/18 04:42:02;;;;;;;12.70;8.97;;;3.80;99.70;;;;;;5036727;28;20430;-60
2021/04/18 04:44:29;;;;;;;16.40;10.30;;;3.90;99.90;;;;;;5038147;28;20219;-61
2021/04/18 04:46:55;;;;;;;11.97;9.67;;;3.90;99.80;;;;;;5035484;28;20425;-61
2021/04/18 04:49:21;;;;;;;14.57;9.97;;;3.90;99.60;;;;;;5035089;28;20426;-60
2021/04/18 04:51:47;;;;;;;15.40;10.30;;;3.90;99.40;;;;;;5039194;28;20184;-59
2021/04/18 04:54:12;;;;;;;14.50;9.83;;;3.90;99.30;;;;;;5044661;28;20854;-60
2021/04/18 04:56:38;;;;;;;14.83;9.93;;;3.90;99.20;;;;;;5042058;28;20245;-60
2021/04/18 04:59:04;;;;;;;17.23;10.17;;;3.90;99.20;;;;;;5039589;28;20233;-59
2021/04/18 05:01:29;;;;;;;16.83;10.00;;;3.90;99.10;;;;;;5039801;28;20707;-60
2021/04/18 05:03:55;;;;;;;14.97;10.10;;;4.00;99.10;;;;;;5037381;28;20781;-60
2021/04/18 05:06:21;;;;;;;17.13;10.07;;;3.90;98.90;;;;;;5042305;28;20171;-60
2021/04/18 05:08:47;;;;;;;20.70;10.43;;;4.00;99.00;;;;;;5058143;28;20570;-60
2021/04/18 05:11:13;;;;;;;19.27;11.50;;;4.00;99.00;;;;;;5040818;28;20179;-60
2021/04/18 05:13:39;;;;;;;16.03;10.50;;;4.00;98.90;;;;;;5041980;28;21190;-61
2021/04/18 05:16:05;;;;;;;18.70;11.67;;;4.00;98.80;;;;;;5040886;28;20187;-60
2021/04/18 05:18:30;;;;;;;14.77;10.17;;;4.00;98.70;;;;;;5040257;28;20274;-60
2021/04/18 05:20:56;;;;;;;16.23;9.60;;;4.00;98.60;;;;;;5042380;28;20461;-61
2021/04/18 05:23:22;;;;;;;15.03;9.67;;;4.00;98.80;;;;;;5043492;28;20215;-60
2021/04/18 05:25:47;;;;;;;14.70;8.83;;;4.00;98.60;;;;;;5044719;28;20586;-60
2021/04/18 05:28:13;;;;;;;18.43;10.27;;;4.00;98.70;;;;;;5039827;28;20222;-60
2021/04/18 05:30:38;;;;;;;14.47;10.20;;;4.00;98.70;;;;;;5040151;28;20236;-60
2021/04/18 05:33:04;;;;;;;12.70;9.60;;;4.00;98.80;;;;;;5040123;28;20179;-59
2021/04/18 05:35:30;;;;;;;13.33;9.30;;;4.10;98.80;;;;;;5039461;28;20736;-60
2021/04/18 05:37:56;;;;;;;15.50;10.80;;;4.10;98.60;;;;;;5047447;28;20175;-60
2021/04/18 05:40:21;;;;;;;16.80;11.33;;;4.10;98.50;;;;;;5063949;28;20236;-60
2021/04/18 05:42:47;;;;;;;18.60;12.00;;;4.10;98.40;;;;;;5042255;28;20235;-60
2021/04/18 05:45:13;;;;;;;20.27;12.13;;;4.10;98.40;;;;;;5045003;28;20437;-60
2021/04/18 05:47:38;;;;;;;20.93;12.13;;;4.10;98.20;;;;;;5046485;28;20163;-60
2021/04/18 05:50:04;;;;;;;22.13;12.47;;;4.10;98.20;;;;;;5046498;28;20182;-60
2021/04/18 05:52:30;;;;;;;20.87;12.63;;;4.10;98.10;;;;;;5046909;28;20175;-60
2021/04/18 05:54:56;;;;;;;18.40;11.43;;;4.10;98.20;;;;;;5046855;28;20484;-60
2021/04/18 05:57:21;;;;;;;18.50;11.63;;;4.20;98.10;;;;;;5039667;28;20213;-60
2021/04/18 05:59:47;;;;;;;23.73;12.90;;;4.20;98.10;;;;;;5049353;28;20267;-60
2021/04/18 06:02:13;;;;;;;19.73;12.07;;;4.20;98.20;;;;;;5040673;28;20183;-59
2021/04/18 06:04:38;;;;;;;21.67;13.47;;;4.20;98.10;;;;;;5043352;28;20731;-60
2021/04/18 06:07:04;;;;;;;22.43;12.93;;;4.20;98.00;;;;;;5042144;28;20247;-59
2021/04/18 06:09:30;;;;;;;22.33;12.60;;;4.20;97.80;;;;;;5042007;28;20164;-60
2021/04/18 06:11:57;;;;;;;21.40;12.60;;;4.20;97.50;;;;;;5044471;28;20171;-60
2021/04/18 06:14:22;;;;;;;20.73;13.03;;;4.20;97.60;;;;;;5043436;28;20453;-60
2021/04/18 06:16:49;;;;;;;25.10;14.00;;;4.20;97.60;;;;;;5041513;28;20433;-59
2021/04/18 06:19:16;;;;;;;21.37;12.73;;;4.30;97.40;;;;;;5043501;28;20301;-60
2021/04/18 06:21:42;;;;;;;23.93;13.00;;;4.30;97.30;;;;;;5046010;28;20482;-60
2021/04/18 06:24:08;;;;;;;21.87;13.17;;;4.30;97.20;;;;;;5043090;28;20875;-60
2021/04/18 06:26:33;;;;;;;19.13;11.87;;;4.30;97.20;;;;;;5046738;28;20421;-60
2021/04/18 06:28:59;;;;;;;24.97;14.20;;;4.40;97.00;;;;;;5049460;28;20438;-60
2021/04/18 06:31:25;;;;;;;24.00;13.00;;;4.40;96.90;;;;;;5038852;28;20190;-60
2021/04/18 06:33:50;;;;;;;25.67;12.93;;;4.40;96.70;;;;;;5039144;28;20805;-61
2021/04/18 06:36:16;;;;;;;25.80;13.40;;;4.50;96.50;;;;;;5045138;28;20555;-60
2021/04/18 06:38:42;;;;;;;21.33;13.33;;;4.60;96.30;;;;;;5043646;28;20191;-60
2021/04/18 06:41:10;;;;;;;23.17;13.77;;;4.60;96.00;;;;;;5046048;28;20774;-61
2021/04/18 06:43:36;;;;;;;19.53;12.70;;;4.70;95.80;;;;;;5033522;28;20336;-62
2021/04/18 06:46:04;;;;;;;24.40;13.60;;;4.80;95.40;;;;;;5030141;28;20525;-60
2021/04/18 06:48:30;;;;;;;19.67;12.10;;;4.80;95.00;;;;;;5034642;28;20434;-59
2021/04/18 06:50:56;;;;;;;23.37;13.57;;;4.90;94.60;;;;;;5035429;28;20486;-60
2021/04/18 06:53:22;;;;;;;23.63;14.70;;;4.90;94.10;;;;;;5042074;28;20202;-59
2021/04/18 06:55:47;;;;;;;21.13;12.40;;;4.90;93.90;;;;;;5044185;28;20175;-60
2021/04/18 06:58:13;;;;;;;17.17;11.23;;;4.90;93.80;;;;;;5037246;28;20254;-60
2021/04/18 07:00:39;;;;;;;18.07;11.70;;;4.90;93.70;;;;;;5040882;28;20217;-60
2021/04/18 07:03:11;;;;;;;19.80;12.07;;;4.90;93.70;;;;;;5040549;28;20187;-61
2021/04/18 07:05:43;;;;;;;20.47;13.63;;;4.90;93.40;;;;;;5037092;28;20239;-60
2021/04/18 07:08:29;;;;;;;19.90;11.60;;;4.90;93.70;;;;;;5040932;28;20483;-61
2021/04/18 07:11:18;;;;;;;20.70;12.50;;;4.90;93.80;;;;;;5041587;28;20517;-60
2021/04/18 07:13:44;;;;;;;20.17;12.00;;;5.00;93.50;;;;;;5037758;28;20449;-60
2021/04/18 07:16:27;;;;;;;16.80;11.00;;;5.00;93.20;;;;;;5036525;28;20503;-59
2021/04/18 07:18:54;;;;;;;20.80;12.27;;;5.00;92.90;;;;;;5041886;28;20542;-59
2021/04/18 07:21:23;;;;;;;19.20;11.00;;;5.00;93.00;;;;;;5043305;28;20429;-60
2021/04/18 07:23:49;;;;;;;21.00;12.10;;;5.00;92.90;;;;;;5046631;28;20481;-60
2021/04/18 07:26:23;;;;;;;21.57;13.07;;;5.00;92.90;;;;;;5045269;28;20433;-59
2021/04/18 07:28:50;;;;;;;25.50;13.13;;;5.00;92.80;;;;;;5041027;28;20461;-60
2021/04/18 07:31:30;;;;;;;17.83;11.23;;;5.00;92.60;;;;;;5045533;28;20448;-60
2021/04/18 07:34:15;;;;;;;20.43;11.73;;;4.90;92.80;;;;;;5044094;28;20500;-60
2021/04/18 07:36:43;;;;;;;19.37;11.43;;;4.90;93.10;;;;;;5040712;28;21752;-60
2021/04/18 07:39:11;;;;;;;18.30;11.60;;;4.90;93.20;;;;;;5041834;28;20435;-60
2021/04/18 07:41:48;;;;;;;21.07;11.70;;;5.00;93.30;;;;;;5043181;28;21023;-61
2021/04/18 07:44:19;;;;;;;19.43;10.57;;;5.00;93.10;;;;;;5036997;28;20489;-60
2021/04/18 07:46:51;;;;;;;18.93;11.30;;;5.10;92.90;;;;;;5041070;28;20444;-60
2021/04/18 07:49:18;;;;;;;17.73;10.60;;;5.10;92.60;;;;;;5042521;28;20499;-61
2021/04/18 07:51:48;;;;;;;18.83;10.43;;;5.10;92.20;;;;;;5038764;28;20449;-60
2021/04/18 07:54:16;;;;;;;17.20;10.40;;;5.20;92.50;;;;;;5057461;28;20468;-60
2021/04/18 07:56:46;;;;;;;18.03;11.90;;;5.20;92.30;;;;;;5036840;28;20448;-60
2021/04/18 07:59:16;;;;;;;18.07;10.40;;;5.20;92.50;;;;;;5042817;28;20430;-59
2021/04/18 08:01:45;;;;;;;17.33;10.00;;;5.30;92.30;;;;;;5041346;28;20809;-60
2021/04/18 08:04:12;;;;;;;13.83;9.97;;;5.30;92.10;;;;;;5041966;28;20523;-60
2021/04/18 08:06:42;;;;;;;16.63;9.77;;;5.30;91.90;;;;;;5045689;28;20433;-59
2021/04/18 08:09:21;;;;;;;17.57;10.67;;;5.30;91.80;;;;;;5050470;28;20490;-60
2021/04/18 08:12:05;;;;;;;17.83;10.17;;;5.20;91.90;;;;;;5052180;28;20433;-61
2021/04/18 08:14:32;;;;;;;12.47;9.43;;;5.20;92.30;;;;;;5044600;28;21265;-56
2021/04/18 08:17:18;;;;;;;13.50;9.60;;;5.20;92.40;;;;;;5057196;28;20852;-61
2021/04/18 08:19:55;;;;;;;14.10;9.93;;;5.10;93.30;;;;;;5043307;28;20440;-60
2021/04/18 08:22:21;;;;;;;16.37;10.43;;;5.20;93.90;;;;;;5041594;28;20458;-59
2021/04/18 08:24:47;;;;;;;14.00;9.07;;;5.20;94.30;;;;;;5039294;28;20449;-59
2021/04/18 08:27:14;;;;;;;14.00;9.87;;;5.20;94.20;;;;;;5040631;28;20758;-62
2021/04/18 08:30:03;;;;;;;18.23;10.70;;;5.20;94.20;;;;;;5049041;28;20217;-60
2021/04/18 08:32:50;;;;;;;19.33;11.00;;;5.20;94.30;;;;;;5059183;28;20452;-58
2021/04/18 08:35:19;;;;;;;16.60;10.40;;;5.20;95.00;;;;;;5039142;28;20453;-58
2021/04/18 08:37:45;;;;;;;17.37;10.33;;;5.20;94.90;;;;;;5039147;28;20442;-59
2021/04/18 08:40:11;;;;;;;17.30;11.00;;;5.30;95.60;;;;;;5043388;28;20429;-60
2021/04/18 08:42:37;;;;;;;18.10;9.47;;;5.30;95.60;;;;;;5043436;28;20198;-59
2021/04/18 08:45:04;;;;;;;14.73;10.00;;;5.30;95.80;;;;;;5046278;28;20476;-59
2021/04/18 08:47:32;;;;;;;16.70;9.93;;;5.40;96.10;;;;;;5043035;28;20421;-61
2021/04/18 08:50:06;;;;;;;17.20;10.33;;;5.40;96.00;;;;;;5042445;28;20512;-62
2021/04/18 08:52:34;;;;;;;16.07;9.70;;;5.40;96.00;;;;;;5040184;28;20441;-59
2021/04/18 08:55:09;;;;;;;17.10;10.83;;;5.40;96.40;;;;;;5042504;28;20460;-58
2021/04/18 08:57:34;;;;;;;15.00;9.83;;;5.50;96.60;;;;;;5037769;28;20431;-60
2021/04/18 09:00:09;;;;;;;14.27;9.53;;;5.50;96.20;;;;;;5038742;28;20433;-60
2021/04/18 09:02:37;;;;;;;19.40;11.60;;;5.50;96.10;;;;;;5032549;28;20801;-62
2021/04/18 09:05:07;;;;;;;16.50;9.47;;;5.60;96.60;;;;;;5041534;28;20446;-60
2021/04/18 09:07:36;;;;;;;14.87;10.13;;;5.60;96.50;;;;;;5045623;28;20426;-60
2021/04/18 09:10:07;;;;;;;16.87;10.77;;;5.60;96.10;;;;;;5042132;28;20422;-61
2021/04/18 09:12:33;;;;;;;20.63;10.80;;;5.60;95.90;;;;;;5039872;28;20436;-61
2021/04/18 09:14:59;;;;;;;17.03;11.07;;;5.60;94.40;;;;;;5038596;28;20842;-60
2021/04/18 09:17:32;;;;;;;17.30;11.20;;;5.50;95.30;;;;;;5046364;28;20218;-61
2021/04/18 09:20:00;;;;;;;15.77;10.70;;;5.60;95.30;;;;;;5055028;28;20240;-60
2021/04/18 09:22:30;;;;;;;13.40;9.63;;;5.60;95.60;;;;;;5036271;28;20514;-61
2021/04/18 09:25:06;;;;;;;15.33;10.60;;;5.70;96.20;;;;;;5041050;28;20450;-61
2021/04/18 09:27:51;;;;;;;17.80;10.70;;;5.80;95.90;;;;;;5037936;28;20444;-61
2021/04/18 09:30:26;;;;;;;17.57;11.30;;;5.90;95.90;;;;;;5047598;28;20461;-61
2021/04/18 09:32:54;;;;;;;23.30;11.43;;;6.00;95.60;;;;;;5047705;28;20979;-61
2021/04/18 09:35:22;;;;;;;15.77;10.20;;;6.00;95.00;;;;;;5095704;22;20830;-56
2021/04/18 09:38:06;;;;;;;14.13;9.97;;;6.00;94.40;;;;;;5084041;28;20429;-56
2021/04/18 09:40:35;;;;;;;14.33;10.63;;;5.90;94.00;;;;;;5080723;28;20436;-56
2021/04/18 09:43:05;;;;;;;15.97;9.80;;;5.90;94.40;;;;;;5080520;28;20869;-59
2021/04/18 09:45:32;;;;;;;25.30;11.03;;;5.80;94.30;;;;;;5074566;28;20444;-55
2021/04/18 09:48:13;;;;;;;20.50;11.00;;;5.70;95.00;;;;;;5070014;28;21089;-55
2021/04/18 09:50:39;;;;;;;16.37;10.50;;;5.70;95.00;;;;;;5064509;28;20458;-56
2021/04/18 09:53:21;;;;;;;14.50;10.13;;;5.70;95.10;;;;;;5064896;28;20429;-55
2021/04/18 09:56:08;;;;;;;18.87;11.93;;;5.60;95.00;;;;;;5061887;28;20275;-55
2021/04/18 09:58:39;;;;;;;13.47;10.10;;;5.70;95.20;;;;;;5067147;28;20460;-56
2021/04/18 10:01:24;;;;;;;16.33;10.60;;;5.70;95.40;;;;;;5045595;28;20871;-54
2021/04/18 10:03:50;;;;;;;15.43;9.50;;;5.80;95.50;;;;;;5068289;28;20465;-55
2021/04/18 10:06:16;;;;;;;13.57;9.60;;;5.90;94.60;;;;;;5065245;28;21065;-50
2021/04/18 10:08:55;;;;;;;11.33;8.70;;;6.00;94.30;;;;;;5068167;28;20183;-53
2021/04/18 10:11:22;;;;;;;11.80;8.33;;;6.00;93.60;;;;;;5067514;28;20163;-53
2021/04/18 10:13:50;;;;;;;12.57;8.77;;;6.00;92.70;;;;;;5070540;28;20516;-57
2021/04/18 10:16:19;;;;;;;16.70;10.93;;;6.10;92.50;;;;;;5066420;28;20486;-53
2021/04/18 10:19:04;;;;;;;15.67;10.57;;;6.10;92.50;;;;;;5059000;28;20870;-55
2021/04/18 10:21:30;;;;;;;15.40;10.70;;;6.00;91.50;;;;;;5064077;28;20433;-55
2021/04/18 10:23:56;;;;;;;18.27;10.70;;;6.00;93.00;;;;;;5058996;28;20471;-55
2021/04/18 10:26:22;;;;;;;12.97;8.80;;;6.00;93.80;;;;;;5060329;28;20170;-53
2021/04/18 10:28:50;;;;;;;13.17;8.73;;;6.00;92.50;;;;;;5057720;28;20188;-58
2021/04/18 10:31:17;;;;;;;14.17;9.20;;;6.10;92.50;;;;;;5061771;28;20462;-54
2021/04/18 10:33:44;;;;;;;12.10;8.30;;;6.10;92.60;;;;;;5064456;28;20428;-55
2021/04/18 10:36:11;;;;;;;19.90;10.53;;;6.10;92.90;;;;;;5065620;28;20424;-54
2021/04/18 10:38:37;;;;;;;15.43;10.60;;;6.20;93.00;;;;;;5068228;28;21003;-54
2021/04/18 10:41:03;;;;;;;14.57;9.90;;;6.20;92.50;;;;;;5059685;28;20429;-55
2021/04/18 10:43:29;;;;;;;14.40;9.40;;;6.10;92.20;;;;;;5067341;28;20550;-55
2021/04/18 10:45:54;;;;;;;12.70;9.83;;;6.00;92.40;;;;;;5070328;28;20923;-56
2021/04/18 10:48:20;;;;;;;15.17;9.67;;;6.00;92.60;;;;;;5063786;28;20175;-56
2021/04/18 10:50:47;;;;;;;17.23;9.53;;;6.00;92.80;;;;;;5060568;28;20239;-55
2021/04/18 10:53:13;;;;;;;15.00;9.50;;;6.00;92.50;;;;;;5067333;28;20202;-56
2021/04/18 10:55:40;;;;;;;13.40;9.13;;;5.90;92.40;;;;;;5061172;28;20455;-54
2021/04/18 10:58:05;;;;;;;14.80;9.17;;;5.90;92.70;;;;;;5060369;28;20182;-55
2021/04/18 11:00:35;;;;;;;16.00;9.00;;;5.90;92.40;;;;;;5066807;28;20490;-56
2021/04/18 11:03:00;;;;;;;12.30;8.80;;;5.90;92.50;;;;;;5065571;28;20517;-55
2021/04/18 11:05:26;;;;;;;11.87;9.07;;;5.90;93.00;;;;;;5052293;28;20457;-58
2021/04/18 11:07:52;;;;;;;13.63;9.50;;;5.90;92.20;;;;;;5068903;28;20510;-58
2021/04/18 11:10:19;;;;;;;14.83;9.40;;;5.90;92.40;;;;;;5064067;28;20666;-56
2021/04/18 11:12:44;;;;;;;10.87;8.60;;;5.90;92.80;;;;;;5065752;28;20206;-56
2021/04/18 11:15:11;;;;;;;12.87;8.80;;;5.90;92.80;;;;;;5062081;28;20492;-56
2021/04/18 11:17:38;;;;;;;13.53;9.43;;;5.90;93.00;;;;;;5061707;28;20194;-60
2021/04/18 11:20:10;;;;;;;10.67;8.77;;;5.90;93.00;;;;;;5064068;28;20447;-55
2021/04/18 11:22:38;;;;;;;12.60;9.07;;;5.90;93.30;;;;;;5064134;28;21018;-53
2021/04/18 11:25:06;;;;;;;18.17;9.50;;;5.90;93.30;;;;;;5066068;28;20460;-55
2021/04/18 11:27:32;;;;;;;13.97;9.50;;;5.90;93.40;;;;;;5059988;28;20437;-54
2021/04/18 11:29:58;;;;;;;12.77;9.60;;;5.90;93.40;;;;;;5057120;28;20441;-59
2021/04/18 11:32:24;;;;;;;13.37;9.47;;;5.90;93.80;;;;;;5062398;28;20221;-55
2021/04/18 11:34:51;;;;;;;14.60;9.47;;;5.90;94.00;;;;;;5060701;28;20827;-53
2021/04/18 11:37:17;;;;;;;12.20;9.43;;;6.00;93.90;;;;;;5053914;28;20312;-57
2021/04/18 11:39:42;;;;;;;15.90;9.37;;;6.00;93.80;;;;;;5064844;28;20996;-55
2021/04/18 11:42:08;;;;;;;16.67;8.80;;;6.00;93.40;;;;;;5059552;28;20174;-60
2021/04/18 11:44:34;;;;;;;14.30;9.80;;;6.00;93.60;;;;;;5065106;28;20213;-55
2021/04/18 11:47:01;;;;;;;12.57;8.63;;;6.00;93.50;;;;;;5070217;28;20923;-56
2021/04/18 11:49:27;;;;;;;11.10;8.30;;;6.00;93.40;;;;;;5069864;28;20170;-54
2021/04/18 11:51:53;;;;;;;10.43;7.53;;;6.00;93.30;;;;;;5071466;28;20447;-56
2021/04/18 11:54:19;;;;;;;9.63;7.43;;;6.00;93.20;;;;;;5061818;28;20206;-56
2021/04/18 11:56:44;;;;;;;9.40;7.07;;;6.10;93.50;;;;;;5065523;28;20244;-58
2021/04/18 11:59:10;;;;;;;7.57;6.53;;;6.10;93.10;;;;;;5068790;28;20190;-55
2021/04/18 12:01:37;;;;;;;9.40;7.13;;;6.10;93.40;;;;;;5066096;28;20698;-57
2021/04/18 12:04:03;;;;;;;10.60;7.50;;;6.20;93.20;;;;;;5059957;28;20214;-58
2021/04/18 12:06:29;;;;;;;9.50;7.10;;;6.20;93.30;;;;;;5070301;28;20492;-59
2021/04/18 12:08:54;;;;;;;10.87;7.20;;;6.30;93.20;;;;;;5068537;28;20435;-57
2021/04/18 12:11:20;;;;;;;9.80;6.77;;;6.40;92.90;;;;;;5065068;28;20213;-56
2021/04/18 12:13:46;;;;;;;11.63;6.53;;;6.50;92.50;;;;;;5059251;28;20183;-56
2021/04/18 12:16:14;;;;;;;8.90;6.70;;;6.60;91.90;;;;;;5075891;28;20193;-57
2021/04/18 12:18:42;;;;;;;8.77;7.00;;;6.70;90.10;;;;;;5068374;28;20447;-56
2021/04/18 12:21:08;;;;;;;9.20;7.10;;;6.70;90.90;;;;;;5065804;28;20429;-58
2021/04/18 12:23:33;;;;;;;7.17;5.80;;;6.80;91.40;;;;;;5063916;28;20534;-60
2021/04/18 12:25:59;;;;;;;8.63;6.60;;;6.80;90.70;;;;;;5065944;28;21094;-56
2021/04/18 12:28:26;;;;;;;7.60;6.37;;;6.80;88.00;;;;;;5068990;28;20243;-57
2021/04/18 12:30:52;;;;;;;9.17;6.80;;;6.70;88.40;;;;;;5061614;28;20190;-57
2021/04/18 12:33:18;;;;;;;9.67;7.57;;;6.70;89.00;;;;;;5070463;28;20468;-58
2021/04/18 12:35:44;;;;;;;8.60;6.20;;;6.70;90.90;;;;;;5064596;28;20980;-57
2021/04/18 12:38:09;;;;;;;9.07;6.70;;;6.70;91.00;;;;;;5080223;28;20474;-56
2021/04/18 12:40:36;;;;;;;7.97;6.00;;;6.70;90.30;;;;;;5060752;28;20209;-56
2021/04/18 12:43:02;;;;;;;8.37;6.20;;;6.60;90.20;;;;;;5067169;28;20256;-56
2021/04/18 12:45:28;;;;;;;8.63;6.57;;;6.60;90.50;;;;;;5064436;28;20456;-55